Aeroporto :
LOGIN :

Iscrizione | Disclaimer

   EN    FR    IT 

 










Sommario :    VFR   VFR Marginale   IFR   IFR Intensivo   IFR Molto Intensivo
Visibilità : 
Base nubi : 
>= 8 km
>= 3000ft
5 / 8 km
1000 / 3000 ft
1500m / 5 km
500 / 1000 ft
800 / 1500m
200 / 500 ft
< 800m
< 200 ft
Simboli :   Temporali  Nebbia  Neve Forte  Precipitazioni Forti  Vento > 20 kt
SIGMETs :   Varie  Temporali  Ghiacco  Turbolenza  Onda orograficha  Ceneri Vulcaniche






- Altitudine del aeroporto : 65 ft
- Codice IATA : PIK


EGPK - Glasgow Prestwick

ULTIMO METAR :
  • 202350Z 22026G36KT 9999 -SHRA FEW012 SCT024 06/03 Q1008

METARs OBSOLETI :
  • 202320Z 21022KT 9999 FEW014 SCT025 06/03 Q1008
  • 202250Z 22020KT 9999 FEW014 SCT025 06/03 Q1009
  • 202220Z 23018KT 9999 FEW016 SCT027 06/03 Q1008
  • 202150Z 23017KT 9999 FEW015 SCT026 05/03 Q1008

TAF TAF EGPK
Valido dal 21 a 00 ore il 22 a 00 ore UTC


202257Z 2100/2124 24017KT 9999 FEW014 SCT025
BECMG 2100/2103 22022G32KT
TEMPO 2103/2124 22032G45KT 6000 RA BKN014
PROB30
TEMPO 2106/2118 3000 RADZ BKN009
PROB30
TEMPO 2119/2122 +RA



MetMap, La meteo Aeronautica in un colpo d'occhio ! - Copyright ORBIFLY Dicembre 2007 - Disclaimer

ORBIFLY MET'MAP TEAM :

Programmazione e sviluppo : Alexandra Zaïnal
Concezione : Baudouin d'Aumeries
Aiuto per la programmazione : Marc-Olivier Méhu
Supporto tecnico e logistico : Manuel Goepfert
Aiuto per la traduzione : Arnaldo La Scala

Contatto : metmap@orbifly.com




FONTI E CREDITI :

   NOAA